Terminal Aerodrome Forecast
Issued by NWS Bismarck, ND

Home | Current Version | Previous Version | Graphics & Text | Print | Product List | Glossary On
Versions: 1 2 3 4 5 6 7 8 9 10 11 12 13 14 15 16 17 18 19 20 21 22 23
000
FTUS43 KBIS 182200 AAD
TAFISN
TAF AMD
KISN 182218Z 1822/1918 35016KT P6SM VCSH BKN080 OVC100
     FM190000 33017G24KT P6SM BKN080
     FM190500 31014KT P6SM SCT110
     FM191200 31017G29KT P6SM VCSH BKN040=

USA.gov is the U.S. government's official web portal to all federal, state and local government web resources and services.